Time,TemperatureF,DewpointF,PressureIn,WindDirection,WindDirectionDegrees,WindSpeedMPH,WindSpeedGustMPH,Humidity,HourlyPrecipIn,Conditions,Clouds,dailyrainin,SoftwareType,DateUTC
2013-07-29 00:01:00,69.6,62.8,30.00,SSE,168,0.0,2.7,79,0.00,,---,0.00,VWS V14.01,2013-07-29 04:01:00,
2013-07-29 00:02:00,69.6,62.8,30.00,SSE,168,0.0,2.7,79,0.00,,---,0.00,VWS V14.01,2013-07-29 04:02:00,
2013-07-29 00:08:00,69.8,63.0,30.00,SSE,167,0.0,0.0,79,0.00,,---,0.00,VWS V14.01,2013-07-29 04:08:00,
2013-07-29 00:13:00,69.8,63.0,30.00,SSE,168,0.0,3.1,79,0.00,,---,0.00,VWS V14.01,2013-07-29 04:13:00,
2013-07-29 00:18:00,69.8,63.0,30.00,South,180,0.0,0.0,79,0.00,,---,0.00,VWS V14.01,2013-07-29 04:18:00,
2013-07-29 00:23:00,69.8,63.0,29.97,South,181,0.0,2.7,79,0.00,,---,0.00,VWS V14.01,2013-07-29 04:23:00,
2013-07-29 00:28:00,69.8,63.0,29.97,South,181,0.0,2.7,79,0.00,,---,0.00,VWS V14.01,2013-07-29 04:28:00,
2013-07-29 00:33:00,69.8,63.0,29.97,South,181,0.0,0.0,79,0.00,,---,0.00,VWS V14.01,2013-07-29 04:33:00,
2013-07-29 00:38:00,69.8,63.0,29.97,South,181,0.0,0.0,79,0.00,,---,0.00,VWS V14.01,2013-07-29 04:38:00,
2013-07-29 00:43:00,69.6,62.8,29.97,South,181,0.0,0.0,79,0.00,,---,0.00,VWS V14.01,2013-07-29 04:43:00,
2013-07-29 00:48:00,69.6,62.8,29.97,South,180,0.0,0.0,79,0.00,,---,0.00,VWS V14.01,2013-07-29 04:48:00,
2013-07-29 00:53:00,69.6,62.8,29.97,South,181,0.0,2.7,79,0.00,,---,0.00,VWS V14.01,2013-07-29 04:53:00,
2013-07-29 00:58:00,69.4,62.7,29.97,South,181,0.0,0.0,79,0.00,,---,0.00,VWS V14.01,2013-07-29 04:58:00,
2013-07-29 01:03:00,69.4,62.7,29.97,South,180,0.0,0.0,79,0.00,,---,0.00,VWS V14.01,2013-07-29 05:03:00,
2013-07-29 01:08:00,69.4,62.7,29.97,South,180,0.0,0.0,79,0.00,,---,0.00,VWS V14.01,2013-07-29 05:08:00,
2013-07-29 01:13:00,69.4,62.7,29.97,South,180,0.0,0.0,79,0.00,,---,0.00,VWS V14.01,2013-07-29 05:13:00,
2013-07-29 01:18:00,69.3,62.5,29.97,South,181,0.0,0.0,79,0.00,,---,0.00,VWS V14.01,2013-07-29 05:18:00,
2013-07-29 01:23:00,69.3,62.5,29.97,South,180,2.7,3.1,79,0.00,,---,0.00,VWS V14.01,2013-07-29 05:23:00,
2013-07-29 01:28:00,69.3,62.5,29.97,South,181,0.0,0.0,79,0.00,,---,0.00,VWS V14.01,2013-07-29 05:28:00,
2013-07-29 01:33:00,69.3,62.5,29.97,South,181,0.0,0.0,79,0.00,,---,0.00,VWS V14.01,2013-07-29 05:33:00,
2013-07-29 01:38:00,69.3,62.5,29.97,South,180,0.0,0.0,79,0.00,,---,0.00,VWS V14.01,2013-07-29 05:38:00,
2013-07-29 01:43:00,69.3,62.5,29.97,South,181,0.0,0.0,79,0.00,,---,0.00,VWS V14.01,2013-07-29 05:43:00,
2013-07-29 01:48:00,69.3,62.5,29.97,South,181,0.0,0.0,79,0.00,,---,0.00,VWS V14.01,2013-07-29 05:48:00,
2013-07-29 01:53:00,69.3,62.5,29.97,South,181,0.0,2.7,79,0.00,,---,0.00,VWS V14.01,2013-07-29 05:53:00,
2013-07-29 01:58:00,69.3,62.5,29.97,South,180,0.0,0.0,79,0.00,,---,0.00,VWS V14.01,2013-07-29 05:58:00,
2013-07-29 02:03:00,69.3,62.5,29.97,South,180,0.0,0.0,79,0.00,,---,0.00,VWS V14.01,2013-07-29 06:03:00,
2013-07-29 02:08:00,69.3,62.5,29.97,South,180,0.0,0.0,79,0.00,,---,0.00,VWS V14.01,2013-07-29 06:08:00,
2013-07-29 02:13:00,69.1,62.3,29.97,South,181,0.0,0.0,79,0.00,,---,0.00,VWS V14.01,2013-07-29 06:13:00,
2013-07-29 02:18:00,69.1,62.3,29.97,South,181,0.0,0.0,79,0.00,,---,0.00,VWS V14.01,2013-07-29 06:18:00,
2013-07-29 02:23:00,69.1,62.3,29.97,South,181,0.0,0.0,79,0.00,,---,0.00,VWS V14.01,2013-07-29 06:23:00,
2013-07-29 02:28:00,68.9,62.5,29.97,South,181,0.0,0.0,80,0.00,,---,0.00,VWS V14.01,2013-07-29 06:28:00,
2013-07-29 02:33:00,68.9,62.5,29.97,South,181,0.0,0.0,80,0.00,,---,0.00,VWS V14.01,2013-07-29 06:33:00,
2013-07-29 02:38:00,68.9,62.5,30.00,South,181,0.0,0.0,80,0.00,,---,0.00,VWS V14.01,2013-07-29 06:38:00,
2013-07-29 02:43:00,68.9,62.5,30.00,South,181,0.0,3.6,80,0.00,,---,0.00,VWS V14.01,2013-07-29 06:43:00,
2013-07-29 02:48:00,68.9,62.5,30.00,South,180,2.7,4.0,80,0.00,,---,0.00,VWS V14.01,2013-07-29 06:48:00,
2013-07-29 02:53:00,68.9,62.5,29.97,South,181,0.0,3.1,80,0.00,,---,0.00,VWS V14.01,2013-07-29 06:53:00,
2013-07-29 02:58:00,68.7,62.3,29.97,South,181,0.0,0.0,80,0.00,,---,0.00,VWS V14.01,2013-07-29 06:58:00,
2013-07-29 03:03:00,68.7,62.3,29.97,South,181,0.0,3.1,80,0.00,,---,0.00,VWS V14.01,2013-07-29 07:03:00,
2013-07-29 03:08:00,68.7,62.3,29.97,South,180,0.0,0.0,80,0.00,,---,0.00,VWS V14.01,2013-07-29 07:08:00,
2013-07-29 03:13:00,68.9,62.8,29.97,South,181,0.0,0.0,81,0.00,,---,0.00,VWS V14.01,2013-07-29 07:13:00,
2013-07-29 03:18:00,68.9,62.8,29.97,South,180,0.0,0.0,81,0.00,,---,0.00,VWS V14.01,2013-07-29 07:18:00,
2013-07-29 03:23:00,68.7,62.7,29.97,South,181,0.0,0.0,81,0.00,,---,0.00,VWS V14.01,2013-07-29 07:23:00,
2013-07-29 03:28:00,68.7,62.7,29.97,South,180,0.0,0.0,81,0.00,,---,0.00,VWS V14.01,2013-07-29 07:28:00,
2013-07-29 03:33:00,68.7,62.7,29.97,South,181,0.0,0.0,81,0.00,,---,0.00,VWS V14.01,2013-07-29 07:33:00,
2013-07-29 03:38:00,68.7,62.7,29.97,South,181,0.0,0.0,81,0.00,,---,0.00,VWS V14.01,2013-07-29 07:38:00,
2013-07-29 03:43:00,68.7,62.7,29.97,South,180,0.0,0.0,81,0.00,,---,0.00,VWS V14.01,2013-07-29 07:43:00,
2013-07-29 03:48:00,68.7,62.7,29.97,South,181,0.0,0.0,81,0.00,,---,0.00,VWS V14.01,2013-07-29 07:48:00,
2013-07-29 03:53:00,68.5,62.5,29.97,South,181,2.7,3.1,81,0.00,,---,0.00,VWS V14.01,2013-07-29 07:53:00,
2013-07-29 03:58:00,68.5,62.5,29.97,South,180,2.7,4.9,81,0.00,,---,0.00,VWS V14.01,2013-07-29 07:58:00,
2013-07-29 04:03:00,68.7,62.7,29.97,South,181,0.0,0.0,81,0.00,,---,0.00,VWS V14.01,2013-07-29 08:03:00,
2013-07-29 04:08:00,68.7,62.7,30.00,South,180,0.0,2.7,81,0.00,,---,0.00,VWS V14.01,2013-07-29 08:08:00,
2013-07-29 04:13:00,68.5,62.5,30.00,South,180,0.0,0.0,81,0.00,,---,0.00,VWS V14.01,2013-07-29 08:13:00,
2013-07-29 04:19:00,68.5,62.5,30.00,South,181,0.0,0.0,81,0.00,,---,0.00,VWS V14.01,2013-07-29 08:19:00,
2013-07-29 04:24:00,68.5,62.5,30.00,South,181,0.0,0.0,81,0.00,,---,0.00,VWS V14.01,2013-07-29 08:24:00,
2013-07-29 04:29:00,68.4,62.3,30.00,South,180,0.0,0.0,81,0.00,,---,0.00,VWS V14.01,2013-07-29 08:29:00,
2013-07-29 04:34:00,68.4,62.3,30.00,South,181,0.0,0.0,81,0.00,,---,0.00,VWS V14.01,2013-07-29 08:34:00,
2013-07-29 04:39:00,68.4,62.3,29.97,South,181,0.0,0.0,81,0.00,,---,0.00,VWS V14.01,2013-07-29 08:39:00,
2013-07-29 04:44:00,68.2,62.1,29.97,South,180,0.0,0.0,81,0.00,,---,0.00,VWS V14.01,2013-07-29 08:44:00,
2013-07-29 04:49:00,68.2,62.1,29.97,South,180,0.0,0.0,81,0.00,,---,0.00,VWS V14.01,2013-07-29 08:49:00,
2013-07-29 04:54:00,68.2,62.1,30.00,South,181,0.0,0.0,81,0.00,,---,0.00,VWS V14.01,2013-07-29 08:54:00,
2013-07-29 04:59:00,68.0,62.0,30.00,South,181,0.0,0.0,81,0.00,,---,0.00,VWS V14.01,2013-07-29 08:59:00,
2013-07-29 05:04:00,68.0,62.0,30.00,South,180,0.0,0.0,81,0.00,,---,0.00,VWS V14.01,2013-07-29 09:04:00,
2013-07-29 05:09:00,68.0,62.0,30.00,South,181,0.0,0.0,81,0.00,,---,0.00,VWS V14.01,2013-07-29 09:09:00,
2013-07-29 05:14:00,68.0,62.0,30.00,South,180,0.0,0.0,81,0.00,,---,0.00,VWS V14.01,2013-07-29 09:14:00,
2013-07-29 05:19:00,68.2,62.1,30.00,South,180,0.0,0.0,81,0.00,,---,0.00,VWS V14.01,2013-07-29 09:19:00,
2013-07-29 05:24:00,68.2,62.1,30.00,South,181,0.0,0.0,81,0.00,,---,0.00,VWS V14.01,2013-07-29 09:24:00,
2013-07-29 05:29:00,68.0,62.0,30.00,South,181,0.0,0.0,81,0.00,,---,0.00,VWS V14.01,2013-07-29 09:29:00,
2013-07-29 05:34:00,68.2,62.1,30.00,South,181,0.0,0.0,81,0.00,,---,0.00,VWS V14.01,2013-07-29 09:34:00,
2013-07-29 05:39:00,68.2,62.1,30.00,South,181,0.0,0.0,81,0.00,,---,0.00,VWS V14.01,2013-07-29 09:39:00,
2013-07-29 05:44:00,68.2,62.1,30.00,South,181,0.0,0.0,81,0.00,,---,0.00,VWS V14.01,2013-07-29 09:44:00,
2013-07-29 05:49:00,68.2,62.5,30.00,South,181,0.0,0.0,82,0.00,,---,0.00,VWS V14.01,2013-07-29 09:49:00,
2013-07-29 05:54:00,68.2,62.5,29.97,South,181,0.0,0.0,82,0.00,,---,0.00,VWS V14.01,2013-07-29 09:54:00,
2013-07-29 05:59:00,68.2,62.1,29.97,South,181,0.0,0.0,81,0.00,,---,0.00,VWS V14.01,2013-07-29 09:59:00,
2013-07-29 06:04:00,68.2,62.1,29.97,South,181,0.0,0.0,81,0.00,,---,0.00,VWS V14.01,2013-07-29 10:04:00,
2013-07-29 06:09:00,68.0,62.0,29.97,South,181,0.0,0.0,81,0.00,,---,0.00,VWS V14.01,2013-07-29 10:09:00,
2013-07-29 06:15:00,68.0,62.0,29.97,South,181,0.0,0.0,81,0.00,,---,0.00,VWS V14.01,2013-07-29 10:15:00,
2013-07-29 06:20:00,67.8,61.8,29.97,South,180,0.0,0.0,81,0.00,,---,0.00,VWS V14.01,2013-07-29 10:20:00,
2013-07-29 06:25:00,67.8,61.8,30.00,South,180,0.0,0.0,81,0.00,,---,0.00,VWS V14.01,2013-07-29 10:25:00,
2013-07-29 06:30:00,67.8,61.8,30.00,South,180,0.0,0.0,81,0.00,,---,0.00,VWS V14.01,2013-07-29 10:30:00,
2013-07-29 06:35:00,67.8,62.1,30.00,South,180,0.0,0.0,82,0.00,,---,0.00,VWS V14.01,2013-07-29 10:35:00,
2013-07-29 06:40:00,67.8,62.1,30.00,South,181,0.0,0.0,82,0.00,,---,0.00,VWS V14.01,2013-07-29 10:40:00,
2013-07-29 06:45:00,67.8,62.1,30.00,South,180,0.0,0.0,82,0.00,,---,0.00,VWS V14.01,2013-07-29 10:45:00,
2013-07-29 06:50:00,67.8,62.1,30.00,South,181,0.0,0.0,82,0.00,,---,0.00,VWS V14.01,2013-07-29 10:50:00,
2013-07-29 06:55:00,67.8,62.1,30.00,South,180,0.0,0.0,82,0.00,,---,0.00,VWS V14.01,2013-07-29 10:55:00,
2013-07-29 07:00:00,68.0,62.3,30.00,South,181,0.0,0.0,82,0.00,,---,0.00,VWS V14.01,2013-07-29 11:00:00,
2013-07-29 07:05:00,68.0,62.3,30.00,South,181,0.0,0.0,82,0.00,,---,0.00,VWS V14.01,2013-07-29 11:05:00,
2013-07-29 07:11:00,68.2,62.5,30.00,South,181,0.0,0.0,82,0.00,,---,0.00,VWS V14.01,2013-07-29 11:11:00,
2013-07-29 07:16:00,68.2,62.5,30.00,South,181,0.0,0.0,82,0.00,,---,0.00,VWS V14.01,2013-07-29 11:16:00,
2013-07-29 07:22:00,68.4,62.7,30.00,South,181,0.0,0.0,82,0.00,,---,0.00,VWS V14.01,2013-07-29 11:22:00,
2013-07-29 07:27:00,68.4,62.7,30.00,South,180,0.0,0.0,82,0.00,,---,0.00,VWS V14.01,2013-07-29 11:27:00,
2013-07-29 07:32:00,68.5,62.8,30.00,South,180,0.0,0.0,82,0.04,,---,0.04,VWS V14.01,2013-07-29 11:32:00,
2013-07-29 07:37:00,68.7,63.0,30.00,South,181,0.0,0.0,82,0.04,,---,0.04,VWS V14.01,2013-07-29 11:37:00,
2013-07-29 07:42:00,68.9,63.2,30.00,South,180,0.0,0.0,82,0.04,,---,0.04,VWS V14.01,2013-07-29 11:42:00,
2013-07-29 07:47:00,68.9,63.2,30.00,South,181,0.0,0.0,82,0.04,,---,0.04,VWS V14.01,2013-07-29 11:47:00,
2013-07-29 07:53:00,69.1,63.4,30.00,South,180,0.0,0.0,82,0.04,,---,0.04,VWS V14.01,2013-07-29 11:53:00,
2013-07-29 07:58:00,69.3,63.5,30.00,South,180,0.0,0.0,82,0.04,,---,0.04,VWS V14.01,2013-07-29 11:58:00,
2013-07-29 08:03:00,69.6,63.9,30.00,South,181,0.0,0.0,82,0.04,,---,0.04,VWS V14.01,2013-07-29 12:03:00,
2013-07-29 08:08:00,69.8,64.1,30.03,South,180,0.0,2.7,82,0.04,,---,0.04,VWS V14.01,2013-07-29 12:08:00,
2013-07-29 08:13:00,69.8,64.1,30.03,NE,45,0.0,5.4,82,0.04,,---,0.04,VWS V14.01,2013-07-29 12:13:00,
2013-07-29 08:19:00,70.0,64.2,30.03,NE,44,0.0,5.4,82,0.04,,---,0.04,VWS V14.01,2013-07-29 12:19:00,
2013-07-29 08:24:00,70.2,64.4,30.03,NE,44,0.0,3.1,82,0.04,,---,0.04,VWS V14.01,2013-07-29 12:24:00,
2013-07-29 08:29:00,70.2,64.4,30.03,NE,44,0.0,0.0,82,0.04,,---,0.04,VWS V14.01,2013-07-29 12:29:00,
2013-07-29 08:34:00,70.3,64.6,30.03,NE,44,0.0,0.0,82,0.04,,---,0.04,VWS V14.01,2013-07-29 12:34:00,
2013-07-29 08:40:00,70.5,64.8,30.03,NE,44,0.0,3.1,82,0.00,,---,0.04,VWS V14.01,2013-07-29 12:40:00,
2013-07-29 08:45:00,70.7,64.9,30.03,NE,44,0.0,0.0,82,0.00,,---,0.04,VWS V14.01,2013-07-29 12:45:00,
2013-07-29 08:50:00,70.9,65.1,30.03,NE,44,2.7,2.7,82,0.00,,---,0.04,VWS V14.01,2013-07-29 12:50:00,
2013-07-29 08:55:00,70.9,65.1,30.03,NE,44,0.0,3.1,82,0.00,,---,0.04,VWS V14.01,2013-07-29 12:55:00,
2013-07-29 09:00:00,71.1,64.9,30.03,NE,44,0.0,3.6,81,0.00,,---,0.04,VWS V14.01,2013-07-29 13:00:00,
2013-07-29 09:05:00,71.2,65.5,30.03,NE,44,0.0,0.0,82,0.00,,---,0.04,VWS V14.01,2013-07-29 13:05:00,
2013-07-29 09:10:00,71.4,65.6,30.03,NE,44,0.0,0.0,82,0.00,,---,0.04,VWS V14.01,2013-07-29 13:10:00,
2013-07-29 09:15:00,71.2,65.1,30.03,NE,44,3.1,3.1,81,0.00,,---,0.04,VWS V14.01,2013-07-29 13:15:00,
2013-07-29 09:21:00,71.2,65.1,30.03,NE,44,0.0,2.7,81,0.00,,---,0.04,VWS V14.01,2013-07-29 13:21:00,
2013-07-29 09:27:00,71.4,65.3,30.03,NE,44,0.0,2.7,81,0.00,,---,0.04,VWS V14.01,2013-07-29 13:27:00,
2013-07-29 09:33:00,71.6,65.5,30.03,NE,44,0.0,3.6,81,0.00,,---,0.04,VWS V14.01,2013-07-29 13:33:00,
2013-07-29 09:38:00,72.0,65.8,30.03,NE,44,0.0,2.7,81,0.00,,---,0.04,VWS V14.01,2013-07-29 13:38:00,
2013-07-29 09:43:00,72.1,66.0,30.03,NNW,344,4.0,4.5,81,0.00,,---,0.04,VWS V14.01,2013-07-29 13:43:00,
2013-07-29 09:48:00,72.5,66.0,30.03,NW,310,3.1,4.5,80,0.00,,---,0.04,VWS V14.01,2013-07-29 13:48:00,
2013-07-29 09:54:00,72.7,66.2,30.03,NW,310,0.0,2.7,80,0.00,,---,0.04,VWS V14.01,2013-07-29 13:54:00,
2013-07-29 09:59:00,72.9,66.0,30.03,NW,310,0.0,0.0,79,0.00,,---,0.04,VWS V14.01,2013-07-29 13:59:00,
2013-07-29 10:04:00,72.7,65.4,30.03,NW,310,0.0,3.1,78,0.00,,---,0.04,VWS V14.01,2013-07-29 14:04:00,
2013-07-29 10:09:00,72.5,65.3,30.03,NW,310,0.0,0.0,78,0.00,,---,0.04,VWS V14.01,2013-07-29 14:09:00,
2013-07-29 10:14:00,72.3,65.1,30.03,NW,310,0.0,0.0,78,0.00,,---,0.04,VWS V14.01,2013-07-29 14:14:00,
2013-07-29 10:19:00,72.3,64.7,30.03,NW,310,0.0,0.0,77,0.00,,---,0.04,VWS V14.01,2013-07-29 14:19:00,
2013-07-29 10:24:00,72.3,64.3,30.03,NW,310,0.0,3.6,76,0.00,,---,0.04,VWS V14.01,2013-07-29 14:24:00,
2013-07-29 10:29:00,72.5,64.1,30.03,NW,310,4.9,5.8,75,0.00,,---,0.04,VWS V14.01,2013-07-29 14:29:00,
2013-07-29 10:34:00,72.7,63.9,30.03,NW,310,0.0,4.5,74,0.00,,---,0.04,VWS V14.01,2013-07-29 14:34:00,
2013-07-29 10:40:00,72.7,63.1,30.03,NW,310,0.0,0.0,72,0.00,,---,0.04,VWS V14.01,2013-07-29 14:40:00,
2013-07-29 10:45:00,73.2,63.3,30.03,WNW,289,3.6,4.9,71,0.00,,---,0.04,VWS V14.01,2013-07-29 14:45:00,
2013-07-29 10:50:00,73.6,63.2,30.03,WNW,289,0.0,4.0,70,0.00,,---,0.04,VWS V14.01,2013-07-29 14:50:00,
2013-07-29 10:55:00,73.8,62.5,30.03,WNW,299,0.0,4.9,68,0.00,,---,0.04,VWS V14.01,2013-07-29 14:55:00,
2013-07-29 11:00:00,74.1,62.0,30.03,WNW,296,0.0,3.1,66,0.00,,---,0.04,VWS V14.01,2013-07-29 15:00:00,
2013-07-29 11:05:00,74.5,60.2,30.03,WNW,296,0.0,3.1,61,0.00,,---,0.04,VWS V14.01,2013-07-29 15:05:00,
2013-07-29 11:10:00,75.2,58.4,30.03,West,278,3.6,3.6,56,0.00,,---,0.04,VWS V14.01,2013-07-29 15:10:00,
2013-07-29 11:15:00,75.9,55.4,30.03,West,277,0.0,3.6,49,0.00,,---,0.04,VWS V14.01,2013-07-29 15:15:00,
2013-07-29 11:20:00,77.0,52.8,30.03,SSW,201,0.0,3.1,43,0.00,,---,0.04,VWS V14.01,2013-07-29 15:20:00,
2013-07-29 11:25:00,77.7,52.8,30.03,SSW,201,0.0,0.0,42,0.00,,---,0.04,VWS V14.01,2013-07-29 15:25:00,
2013-07-29 11:30:00,78.3,52.0,30.03,SW,226,0.0,0.0,40,0.00,,---,0.04,VWS V14.01,2013-07-29 15:30:00,
2013-07-29 11:35:00,78.4,49.3,30.03,West,260,0.0,0.0,36,0.00,,---,0.04,VWS V14.01,2013-07-29 15:35:00,
2013-07-29 11:40:00,78.8,48.9,30.03,West,261,0.0,0.0,35,0.00,,---,0.04,VWS V14.01,2013-07-29 15:40:00,
2013-07-29 11:45:00,79.7,49.7,30.03,West,261,0.0,0.0,35,0.00,,---,0.04,VWS V14.01,2013-07-29 15:45:00,
2013-07-29 11:50:00,80.4,50.3,30.03,WSW,258,0.0,0.0,35,0.00,,---,0.04,VWS V14.01,2013-07-29 15:50:00,
2013-07-29 11:55:00,81.0,50.0,30.03,West,270,0.0,0.0,34,0.00,,---,0.04,VWS V14.01,2013-07-29 15:55:00,
2013-07-29 12:00:00,80.4,47.9,30.03,West,271,0.0,0.0,32,0.00,,---,0.04,VWS V14.01,2013-07-29 16:00:00,
2013-07-29 12:05:00,79.9,47.4,30.03,West,271,0.0,0.0,32,0.00,,---,0.04,VWS V14.01,2013-07-29 16:05:00,
2013-07-29 12:10:00,80.8,49.0,30.03,West,270,0.0,0.0,33,0.00,,---,0.04,VWS V14.01,2013-07-29 16:10:00,
2013-07-29 12:15:00,80.6,48.9,30.03,West,271,0.0,0.0,33,0.00,,---,0.04,VWS V14.01,2013-07-29 16:15:00,
2013-07-29 12:20:00,80.2,46.0,30.03,WNW,300,0.0,0.0,30,0.00,,---,0.04,VWS V14.01,2013-07-29 16:20:00,
2013-07-29 12:25:00,80.4,47.0,30.03,WNW,287,0.0,0.0,31,0.00,,---,0.04,VWS V14.01,2013-07-29 16:25:00,
2013-07-29 12:31:00,80.8,47.4,30.03,WNW,286,0.0,0.0,31,0.00,,---,0.04,VWS V14.01,2013-07-29 16:31:00,
2013-07-29 12:36:00,82.2,47.7,30.03,West,264,0.0,0.0,30,0.00,,---,0.04,VWS V14.01,2013-07-29 16:36:00,
2013-07-29 12:41:00,83.3,47.8,30.03,West,278,0.0,0.0,29,0.00,,---,0.04,VWS V14.01,2013-07-29 16:41:00,
2013-07-29 12:46:00,83.7,48.1,30.03,West,272,0.0,3.6,29,0.00,,---,0.04,VWS V14.01,2013-07-29 16:46:00,
2013-07-29 12:51:00,83.8,46.3,30.03,WNW,303,0.0,4.5,27,0.00,,---,0.04,VWS V14.01,2013-07-29 16:51:00,
2013-07-29 12:56:00,84.2,46.6,30.03,WSW,245,0.0,4.9,27,0.00,,---,0.04,VWS V14.01,2013-07-29 16:56:00,
2013-07-29 13:02:00,85.1,39.6,30.03,WNW,288,5.8,5.8,20,0.00,,---,0.04,VWS V14.01,2013-07-29 17:02:00,
2013-07-29 13:07:00,85.5,39.9,30.03,North,356,4.5,4.9,20,0.00,,---,0.04,VWS V14.01,2013-07-29 17:07:00,
2013-07-29 13:13:00,84.2,38.8,30.03,WSW,244,3.1,4.5,20,0.00,,---,0.04,VWS V14.01,2013-07-29 17:13:00,
2013-07-29 13:18:00,83.5,38.2,30.03,WSW,241,0.0,0.0,20,0.00,,---,0.04,VWS V14.01,2013-07-29 17:18:00,
2013-07-29 13:23:00,85.1,40.8,30.00,SSE,160,0.0,0.0,21,0.00,,---,0.04,VWS V14.01,2013-07-29 17:23:00,
2013-07-29 13:28:00,84.4,39.0,30.00,SSW,195,0.0,6.7,20,0.00,,---,0.04,VWS V14.01,2013-07-29 17:28:00,
2013-07-29 13:33:00,83.8,37.2,30.00,South,191,0.0,4.5,19,0.00,,---,0.04,VWS V14.01,2013-07-29 17:33:00,
2013-07-29 13:38:00,82.9,37.8,30.00,SW,221,0.0,4.5,20,0.00,,---,0.04,VWS V14.01,2013-07-29 17:38:00,
2013-07-29 13:43:00,82.4,37.3,30.00,WSW,240,0.0,5.4,20,0.00,,---,0.04,VWS V14.01,2013-07-29 17:43:00,
2013-07-29 13:48:00,82.4,37.3,30.00,WSW,241,0.0,3.6,20,0.00,,---,0.04,VWS V14.01,2013-07-29 17:48:00,
2013-07-29 13:54:00,81.9,38.1,30.00,SW,214,3.6,5.4,21,0.00,,---,0.04,VWS V14.01,2013-07-29 17:54:00,
2013-07-29 13:59:00,83.7,37.1,30.00,NW,319,0.0,7.4,19,0.00,,---,0.04,VWS V14.01,2013-07-29 17:59:00,
2013-07-29 14:04:00,83.7,37.1,30.00,NW,318,0.0,3.6,19,0.00,,---,0.04,VWS V14.01,2013-07-29 18:04:00,
2013-07-29 14:09:00,83.8,37.2,30.00,NNW,330,0.0,7.8,19,0.00,,---,0.04,VWS V14.01,2013-07-29 18:09:00,
2013-07-29 14:14:00,85.3,37.0,30.00,SSW,204,3.6,9.6,18,0.00,,---,0.04,VWS V14.01,2013-07-29 18:14:00,
2013-07-29 14:19:00,86.9,33.7,30.00,SW,234,0.0,5.8,15,0.00,,---,0.04,VWS V14.01,2013-07-29 18:19:00,
2013-07-29 14:24:00,87.4,30.6,30.00,North,351,0.0,7.4,13,0.00,,---,0.04,VWS V14.01,2013-07-29 18:24:00,
2013-07-29 14:29:00,87.3,30.5,30.00,SW,220,0.0,5.8,13,0.00,,---,0.04,VWS V14.01,2013-07-29 18:29:00,
2013-07-29 14:34:00,87.1,30.3,30.00,SW,233,0.0,0.0,13,0.00,,---,0.04,VWS V14.01,2013-07-29 18:34:00,
2013-07-29 14:39:00,86.9,23.8,30.00,WNW,286,0.0,4.0,10,0.00,,---,0.04,VWS V14.01,2013-07-29 18:39:00,
2013-07-29 14:44:00,85.6,29.2,30.00,North,351,0.0,0.0,13,0.00,,---,0.04,VWS V14.01,2013-07-29 18:44:00,
2013-07-29 14:49:00,84.4,28.2,30.00,WSW,239,0.0,4.5,13,0.00,,---,0.04,VWS V14.01,2013-07-29 18:49:00,
2013-07-29 14:55:00,85.8,34.5,30.00,NW,316,7.4,8.7,16,0.00,,---,0.04,VWS V14.01,2013-07-29 18:55:00,
2013-07-29 15:00:00,86.5,29.9,30.00,NNE,26,0.0,8.3,13,0.00,,---,0.04,VWS V14.01,2013-07-29 19:00:00,
2013-07-29 15:05:00,85.8,25.3,30.00,WSW,253,0.0,6.9,11,0.00,,---,0.04,VWS V14.01,2013-07-29 19:05:00,
2013-07-29 15:10:00,86.5,29.9,30.00,SW,227,0.0,5.8,13,0.00,,---,0.04,VWS V14.01,2013-07-29 19:10:00,
2013-07-29 15:15:00,87.3,24.1,30.00,West,272,0.0,8.3,10,0.00,,---,0.04,VWS V14.01,2013-07-29 19:15:00,
2013-07-29 15:20:00,88.5,25.1,30.00,West,278,0.0,6.7,10,0.00,,---,0.04,VWS V14.01,2013-07-29 19:20:00,
2013-07-29 15:25:00,88.2,24.8,30.00,WSW,239,5.8,11.0,10,0.00,,---,0.04,VWS V14.01,2013-07-29 19:25:00,
2013-07-29 15:30:00,88.5,25.1,30.00,NW,324,0.0,10.1,10,0.00,,---,0.04,VWS V14.01,2013-07-29 19:30:00,
2013-07-29 15:35:00,88.2,24.8,30.00,SSW,203,0.0,8.7,10,0.00,,---,0.04,VWS V14.01,2013-07-29 19:35:00,
2013-07-29 15:40:00,88.5,25.1,30.00,WSW,240,7.8,8.3,10,0.00,,---,0.04,VWS V14.01,2013-07-29 19:40:00,
2013-07-29 15:45:00,88.0,24.7,30.00,North,356,3.1,10.5,10,0.00,,---,0.04,VWS V14.01,2013-07-29 19:45:00,
2013-07-29 15:50:00,87.6,24.4,30.00,SSW,211,6.7,6.9,10,0.00,,---,0.04,VWS V14.01,2013-07-29 19:50:00,
2013-07-29 15:55:00,86.7,26.0,30.00,NW,324,6.7,8.3,11,0.00,,---,0.04,VWS V14.01,2013-07-29 19:55:00,
2013-07-29 16:00:00,87.4,24.2,30.00,West,275,6.3,6.7,10,0.00,,---,0.00,VWS V14.01,2013-07-29 20:00:00,
2013-07-29 16:05:00,87.3,24.1,30.00,WSW,251,8.7,10.5,10,0.00,,---,0.04,VWS V14.01,2013-07-29 20:05:00,
2013-07-29 16:10:00,86.7,23.7,30.00,SW,216,6.9,6.9,10,0.00,,---,0.04,VWS V14.01,2013-07-29 20:10:00,
2013-07-29 16:16:00,86.4,23.4,30.00,SW,230,6.7,10.1,10,0.00,,---,0.04,VWS V14.01,2013-07-29 20:16:00,
2013-07-29 16:21:00,86.5,23.6,30.00,NNW,335,4.0,4.0,10,0.00,,---,0.04,VWS V14.01,2013-07-29 20:21:00,
2013-07-29 16:26:00,86.7,26.0,30.00,SW,223,0.0,3.6,11,0.00,,---,0.04,VWS V14.01,2013-07-29 20:26:00,
2013-07-29 16:31:00,87.6,24.4,30.00,West,271,6.7,9.6,10,0.00,,---,0.04,VWS V14.01,2013-07-29 20:31:00,
2013-07-29 16:36:00,87.4,24.2,30.00,West,269,4.9,6.7,10,0.00,,---,0.04,VWS V14.01,2013-07-29 20:36:00,
2013-07-29 16:42:00,87.8,24.5,30.00,SSW,213,4.0,13.0,10,0.00,,---,0.04,VWS V14.01,2013-07-29 20:42:00,
2013-07-29 16:47:00,87.4,24.2,30.00,WNW,294,3.6,7.8,10,0.00,,---,0.04,VWS V14.01,2013-07-29 20:47:00,
2013-07-29 16:52:00,87.6,24.4,30.00,WSW,238,9.2,10.5,10,0.00,,---,0.04,VWS V14.01,2013-07-29 20:52:00,
2013-07-29 16:57:00,87.4,24.2,30.00,North,356,6.7,6.7,10,0.00,,---,0.04,VWS V14.01,2013-07-29 20:57:00,
2013-07-29 17:03:00,87.8,24.5,30.00,West,271,2.7,7.8,10,0.00,,---,0.04,VWS V14.01,2013-07-29 21:03:00,
2013-07-29 17:08:00,88.0,24.7,30.00,ENE,63,4.0,7.8,10,0.00,,---,0.04,VWS V14.01,2013-07-29 21:08:00,
2013-07-29 17:13:00,87.3,24.1,30.00,North,351,3.6,6.7,10,0.00,,---,0.04,VWS V14.01,2013-07-29 21:13:00,
2013-07-29 17:18:00,87.1,24.0,30.00,SE,143,0.0,6.9,10,0.00,,---,0.04,VWS V14.01,2013-07-29 21:18:00,
2013-07-29 17:24:00,85.8,25.3,30.00,North,5,3.6,9.6,11,0.00,,---,0.04,VWS V14.01,2013-07-29 21:24:00,
2013-07-29 17:29:00,86.0,25.4,30.00,NW,310,0.0,6.7,11,0.00,,---,0.04,VWS V14.01,2013-07-29 21:29:00,
2013-07-29 17:34:00,86.0,25.4,30.00,WSW,243,0.0,8.3,11,0.00,,---,0.04,VWS V14.01,2013-07-29 21:34:00,
2013-07-29 17:39:00,85.5,25.0,30.00,SW,226,3.1,6.7,11,0.00,,---,0.04,VWS V14.01,2013-07-29 21:39:00,
2013-07-29 17:45:00,85.5,25.0,30.00,NW,316,4.0,8.3,11,0.00,,---,0.04,VWS V14.01,2013-07-29 21:45:00,
2013-07-29 17:50:00,85.1,22.5,30.00,NNE,20,3.1,9.2,10,0.00,,---,0.04,VWS V14.01,2013-07-29 21:50:00,
2013-07-29 17:55:00,85.3,22.6,30.00,WNW,302,0.0,5.4,10,0.00,,---,0.04,VWS V14.01,2013-07-29 21:55:00,
2013-07-29 18:00:00,84.6,22.1,30.00,WNW,294,2.7,12.5,10,0.00,,---,0.04,VWS V14.01,2013-07-29 22:00:00,
2013-07-29 18:05:00,83.8,21.5,30.00,NNW,329,3.6,11.6,10,0.00,,---,0.04,VWS V14.01,2013-07-29 22:05:00,
2013-07-29 18:11:00,83.3,23.4,30.00,NW,313,2.7,6.9,11,0.00,,---,0.04,VWS V14.01,2013-07-29 22:11:00,
2013-07-29 18:16:00,83.3,23.4,30.00,West,270,0.0,6.3,11,0.00,,---,0.04,VWS V14.01,2013-07-29 22:16:00,
2013-07-29 18:22:00,83.1,23.2,30.00,West,269,3.1,6.7,11,0.00,,---,0.04,VWS V14.01,2013-07-29 22:22:00,
2013-07-29 18:27:00,81.9,20.0,30.00,NW,310,4.9,12.5,10,0.00,,---,0.04,VWS V14.01,2013-07-29 22:27:00,
2013-07-29 18:32:00,81.1,19.5,30.00,WNW,294,4.5,7.8,10,0.00,,---,0.04,VWS V14.01,2013-07-29 22:32:00,
2013-07-29 18:37:00,81.1,19.5,30.03,SSW,207,2.7,7.4,10,0.00,,---,0.04,VWS V14.01,2013-07-29 22:37:00,
2013-07-29 18:42:00,80.8,19.2,30.03,WNW,302,5.4,9.2,10,0.00,,---,0.04,VWS V14.01,2013-07-29 22:42:00,
2013-07-29 18:47:00,80.8,19.2,30.03,West,272,4.9,5.8,10,0.00,,---,0.04,VWS V14.01,2013-07-29 22:47:00,
2013-07-29 18:52:00,80.4,18.9,30.03,West,262,4.0,12.1,10,0.00,,---,0.04,VWS V14.01,2013-07-29 22:52:00,
2013-07-29 18:58:00,80.2,18.8,30.03,WSW,255,4.5,6.7,10,0.00,,---,0.04,VWS V14.01,2013-07-29 22:58:00,
2013-07-29 19:03:00,79.9,18.5,30.03,WNW,294,0.0,6.7,10,0.00,,---,0.04,VWS V14.01,2013-07-29 23:03:00,
2013-07-29 19:08:00,79.5,18.2,30.03,NNW,342,0.0,4.9,10,0.00,,---,0.04,VWS V14.01,2013-07-29 23:08:00,
2013-07-29 19:13:00,79.2,18.0,30.03,NW,312,0.0,4.9,10,0.00,,---,0.04,VWS V14.01,2013-07-29 23:13:00,
2013-07-29 19:18:00,78.8,22.0,30.03,NNE,12,4.9,5.4,12,0.00,,---,0.04,VWS V14.01,2013-07-29 23:18:00,
2013-07-29 19:23:00,78.4,21.7,30.03,North,351,0.0,0.0,12,0.00,,---,0.04,VWS V14.01,2013-07-29 23:23:00,
2013-07-29 19:28:00,78.1,21.4,30.03,North,351,0.0,0.0,12,0.00,,---,0.04,VWS V14.01,2013-07-29 23:28:00,
2013-07-29 19:34:00,77.7,23.0,30.03,North,351,0.0,0.0,13,0.00,,---,0.04,VWS V14.01,2013-07-29 23:34:00,
2013-07-29 19:39:00,77.4,22.7,30.03,WNW,289,0.0,0.0,13,0.00,,---,0.04,VWS V14.01,2013-07-29 23:39:00,
2013-07-29 19:44:00,77.0,22.4,30.03,WSW,248,0.0,5.4,13,0.00,,---,0.04,VWS V14.01,2013-07-29 23:44:00,
2013-07-29 19:49:00,76.8,22.3,30.03,North,2,0.0,4.9,13,0.00,,---,0.04,VWS V14.01,2013-07-29 23:49:00,
2013-07-29 19:54:00,76.5,22.0,30.03,WNW,290,0.0,5.4,13,0.00,,---,0.04,VWS V14.01,2013-07-29 23:54:00,
2013-07-29 19:59:00,76.1,25.1,30.03,WNW,291,0.0,0.0,15,0.00,,---,0.04,VWS V14.01,2013-07-29 23:59:00,
2013-07-29 20:04:00,75.7,21.5,30.03,West,280,0.0,5.4,13,0.00,,---,0.04,VWS V14.01,2013-07-30 00:04:00,
2013-07-29 20:09:00,75.4,21.2,30.06,WNW,284,0.0,4.5,13,0.00,,---,0.04,VWS V14.01,2013-07-30 00:09:00,
2013-07-29 20:14:00,75.0,24.3,30.06,WNW,284,0.0,0.0,15,0.00,,---,0.04,VWS V14.01,2013-07-30 00:14:00,
2013-07-29 20:19:00,74.7,28.4,30.06,WNW,284,0.0,0.0,18,0.00,,---,0.04,VWS V14.01,2013-07-30 00:19:00,
2013-07-29 20:25:00,74.1,27.9,30.06,WNW,284,0.0,0.0,18,0.00,,---,0.04,VWS V14.01,2013-07-30 00:25:00,
2013-07-29 20:30:00,73.9,27.8,30.06,NNW,331,0.0,0.0,18,0.00,,---,0.04,VWS V14.01,2013-07-30 00:30:00,
2013-07-29 20:35:00,73.9,27.8,30.06,WSW,247,5.4,8.3,18,0.00,,---,0.04,VWS V14.01,2013-07-30 00:35:00,
2013-07-29 20:40:00,73.9,27.8,30.06,West,269,3.1,6.3,18,0.00,,---,0.04,VWS V14.01,2013-07-30 00:40:00,
2013-07-29 20:45:00,73.8,27.6,30.06,West,269,0.0,3.1,18,0.00,,---,0.04,VWS V14.01,2013-07-30 00:45:00,
2013-07-29 20:50:00,73.6,27.5,30.06,West,269,0.0,0.0,18,0.00,,---,0.04,VWS V14.01,2013-07-30 00:50:00,
2013-07-29 20:55:00,73.6,27.5,30.06,WSW,258,0.0,4.5,18,0.00,,---,0.04,VWS V14.01,2013-07-30 00:55:00,
2013-07-29 21:00:00,73.4,27.4,30.06,WSW,258,0.0,0.0,18,0.00,,---,0.04,VWS V14.01,2013-07-30 01:00:00,
2013-07-29 21:05:00,73.0,27.1,30.06,WSW,258,0.0,0.0,18,0.00,,---,0.04,VWS V14.01,2013-07-30 01:05:00,
2013-07-29 21:11:00,72.9,26.9,30.06,WSW,258,0.0,0.0,18,0.00,,---,0.04,VWS V14.01,2013-07-30 01:11:00,
2013-07-29 21:16:00,72.7,26.8,30.06,WSW,258,0.0,0.0,18,0.00,,---,0.04,VWS V14.01,2013-07-30 01:16:00,
2013-07-29 21:21:00,72.5,26.6,30.06,WSW,258,0.0,0.0,18,0.00,,---,0.04,VWS V14.01,2013-07-30 01:21:00,
2013-07-29 21:26:00,72.3,27.8,30.06,WSW,239,0.0,0.0,19,0.00,,---,0.04,VWS V14.01,2013-07-30 01:26:00,
2013-07-29 21:31:00,72.3,27.8,30.06,WSW,239,0.0,0.0,19,0.00,,---,0.04,VWS V14.01,2013-07-30 01:31:00,
2013-07-29 21:37:00,72.0,29.9,30.06,WSW,239,0.0,0.0,21,0.00,,---,0.04,VWS V14.01,2013-07-30 01:37:00,
2013-07-29 21:42:00,71.6,29.6,30.06,WSW,239,0.0,0.0,21,0.00,,---,0.04,VWS V14.01,2013-07-30 01:42:00,
2013-07-29 21:47:00,71.1,30.3,30.06,WSW,239,0.0,0.0,22,0.00,,---,0.04,VWS V14.01,2013-07-30 01:47:00,
2013-07-29 21:52:00,70.3,32.9,30.09,WSW,239,0.0,0.0,25,0.00,,---,0.04,VWS V14.01,2013-07-30 01:52:00,
2013-07-29 21:58:00,69.6,35.1,30.09,WSW,239,0.0,0.0,28,0.00,,---,0.04,VWS V14.01,2013-07-30 01:58:00,
2013-07-29 22:03:00,69.1,33.7,30.09,WSW,239,0.0,0.0,27,0.00,,---,0.04,VWS V14.01,2013-07-30 02:03:00,
2013-07-29 22:08:00,68.7,35.2,30.09,WSW,239,0.0,0.0,29,0.00,,---,0.04,VWS V14.01,2013-07-30 02:08:00,
2013-07-29 22:13:00,68.5,36.7,30.09,WSW,239,0.0,0.0,31,0.00,,---,0.04,VWS V14.01,2013-07-30 02:13:00,
2013-07-29 22:18:00,68.2,37.2,30.09,WSW,239,0.0,0.0,32,0.00,,---,0.04,VWS V14.01,2013-07-30 02:18:00,
2013-07-29 22:23:00,68.2,38.0,30.09,WSW,239,0.0,0.0,33,0.00,,---,0.04,VWS V14.01,2013-07-30 02:23:00,
2013-07-29 22:28:00,68.4,37.4,30.09,WSW,239,0.0,0.0,32,0.00,,---,0.04,VWS V14.01,2013-07-30 02:28:00,
2013-07-29 22:33:00,68.9,35.4,30.09,SW,233,0.0,0.0,29,0.00,,---,0.04,VWS V14.01,2013-07-30 02:33:00,
2013-07-29 22:38:00,69.4,34.0,30.09,SW,227,0.0,0.0,27,0.00,,---,0.04,VWS V14.01,2013-07-30 02:38:00,
2013-07-29 22:43:00,69.3,35.7,30.09,SW,227,0.0,0.0,29,0.00,,---,0.04,VWS V14.01,2013-07-30 02:43:00,
2013-07-29 22:49:00,68.5,37.5,30.09,SW,227,0.0,0.0,32,0.00,,---,0.04,VWS V14.01,2013-07-30 02:49:00,
2013-07-29 22:54:00,68.0,37.8,30.09,SW,227,0.0,0.0,33,0.00,,---,0.04,VWS V14.01,2013-07-30 02:54:00,
2013-07-29 22:59:00,67.6,37.5,30.09,SW,227,0.0,0.0,33,0.00,,---,0.04,VWS V14.01,2013-07-30 02:59:00,
2013-07-29 23:04:00,67.5,38.1,30.09,SW,227,0.0,0.0,34,0.00,,---,0.04,VWS V14.01,2013-07-30 03:04:00,
2013-07-29 23:09:00,67.1,39.3,30.09,SW,227,0.0,0.0,36,0.00,,---,0.04,VWS V14.01,2013-07-30 03:09:00,
2013-07-29 23:14:00,66.9,39.8,30.09,SW,227,0.0,0.0,37,0.00,,---,0.04,VWS V14.01,2013-07-30 03:14:00,
2013-07-29 23:19:00,66.9,39.1,30.09,SW,227,0.0,0.0,36,0.00,,---,0.04,VWS V14.01,2013-07-30 03:19:00,
2013-07-29 23:25:00,67.1,39.3,30.09,SW,227,0.0,0.0,36,0.00,,---,0.04,VWS V14.01,2013-07-30 03:25:00,
2013-07-29 23:30:00,66.7,39.0,30.09,SW,227,0.0,0.0,36,0.00,,---,0.04,VWS V14.01,2013-07-30 03:30:00,
2013-07-29 23:35:00,66.7,39.7,30.09,WNW,293,0.0,0.0,37,0.00,,---,0.04,VWS V14.01,2013-07-30 03:35:00,
2013-07-29 23:41:00,66.9,39.1,30.09,WNW,293,0.0,0.0,36,0.00,,---,0.04,VWS V14.01,2013-07-30 03:41:00,
2013-07-29 23:46:00,66.7,39.7,30.09,WNW,293,0.0,0.0,37,0.00,,---,0.04,VWS V14.01,2013-07-30 03:46:00,
2013-07-29 23:51:00,66.6,39.5,30.09,WNW,293,0.0,0.0,37,0.00,,---,0.04,VWS V14.01,2013-07-30 03:51:00,
2013-07-29 23:56:00,66.6,38.8,30.09,WNW,293,0.0,0.0,36,0.00,,---,0.04,VWS V14.01,2013-07-30 03:56:00,